This is the latest recevied weather packets stored in our database for station/object EA4IAJ-12. If no packets are shown the sender has not sent any weather packets the latest 10 day(s).
| Time | Temp. | Humidity | Pressure | Rain* | Wind** | Luminosity | Snow |
|---|---|---|---|---|---|---|---|
| 1787949392 | 20° C | 38% | 1010.1 hPa | - | - | - | - |
| 1787948492 | 20.56° C | 37% | 1012.7 hPa | - | - | - | - |
| 1787947591 | 20.56° C | 36% | 1012.6 hPa | - | - | - | - |
| 1787946691 | 21.11° C | 36% | 1013.1 hPa | - | - | - | - |
| 1787945790 | 21.11° C | 35% | 1013.5 hPa | - | - | - | - |
| 1787944890 | 21.11° C | 34% | 1014.3 hPa | - | - | - | - |
| 1787943089 | 22.22° C | 33% | 1018.1 hPa | - | - | - | - |
| 1787942188 | 23.33° C | 33% | 1022.1 hPa | - | - | - | - |
| 1787941288 | 24.44° C | 32% | 1025.9 hPa | - | - | - | - |
| 1787940387 | 26.67° C | 33% | 1032.4 hPa | - | - | - | - |
| 1787939486 | 27.22° C | 32% | 1034.6 hPa | - | - | - | - |
| 1787938586 | 27.78° C | 33% | 1036.7 hPa | - | - | - | - |
| 1787937685 | 27.78° C | 33% | 1038.7 hPa | - | - | - | - |
| 1787936785 | 28.33° C | 33% | 1040 hPa | - | - | - | - |
| 1787935884 | 30° C | 33% | 1045.7 hPa | - | - | - | - |
| 1787934984 | 28.89° C | 33% | 1042.9 hPa | - | - | - | - |
| 1787934083 | 29.44° C | 33% | 1044.4 hPa | - | - | - | - |
| 1787933183 | 29.44° C | 34% | 1044.6 hPa | - | - | - | - |
| 1787932295 | 30° C | 34% | 1046.5 hPa | - | - | - | - |
| 1787931394 | 30° C | 34% | 1046.6 hPa | - | - | - | - |
| 1787930493 | 30.56° C | 34% | 1049.2 hPa | - | - | - | - |
| 1787929593 | 30.56° C | 35% | 1050.4 hPa | - | - | - | - |
| 1787928692 | 31.11° C | 36% | 1051.5 hPa | - | - | - | - |
| 1787928366 | 31.11° C | 36% | 1052.3 hPa | - | - | - | - |
| 1787927792 | 31.11° C | 36% | 1052.3 hPa | - | - | - | - |
* Rain since midnight (hover to see other rain measurements)
** Current wind speed in m/s (hover to see current wind gust speed)